createdAt,value
2023-01-07T00:01:54.809Z,101557.00
2023-01-07T00:06:47.512Z,101560.50
2023-01-07T00:11:41.691Z,101553.53
2023-01-07T00:16:38.767Z,101556.09
2023-01-07T00:21:35.139Z,101546.50
2023-01-07T00:26:28.656Z,101548.28
2023-01-07T00:31:23.125Z,101542.16
2023-01-07T00:36:15.020Z,101539.66
2023-01-07T00:41:10.760Z,101532.69
2023-01-07T00:46:02.087Z,101531.72
2023-01-07T00:50:54.905Z,101523.03
2023-01-07T00:55:47.493Z,101468.41
2023-01-07T01:00:41.284Z,101508.22
2023-01-07T01:05:35.266Z,101512.56
2023-01-07T01:10:28.416Z,101501.25
2023-01-07T01:15:21.150Z,101498.53
2023-01-07T01:20:17.772Z,101495.94
2023-01-07T01:25:10.675Z,101484.66
2023-01-07T01:30:03.917Z,101485.50
2023-01-07T01:34:58.152Z,101486.38
2023-01-07T01:39:52.291Z,101473.34
2023-01-07T01:44:54.362Z,101463.06
2023-01-07T01:50:05.818Z,101474.41
2023-01-07T01:55:05.081Z,101471.03
2023-01-07T02:00:01.423Z,101473.66
2023-01-07T02:04:56.939Z,101471.09
2023-01-07T02:09:55.494Z,101466.78
2023-01-07T02:15:11.171Z,101472.00
2023-01-07T02:20:26.850Z,101465.09
2023-01-07T02:25:50.164Z,101456.47
2023-01-07T02:31:05.551Z,101459.97
2023-01-07T02:36:12.640Z,101454.81
2023-01-07T02:41:11.652Z,101466.19
2023-01-07T02:46:11.480Z,101436.75
2023-01-07T02:51:05.934Z,101452.34
2023-01-07T02:56:14.707Z,101442.81
2023-01-07T03:01:47.679Z,101436.72
2023-01-07T03:06:57.970Z,101413.34
2023-01-07T03:11:56.594Z,101429.75
2023-01-07T03:17:03.717Z,101425.53
2023-01-07T03:21:59.897Z,101411.72
2023-01-07T03:26:56.387Z,101405.66
2023-01-07T03:32:01.275Z,101403.88
2023-01-07T03:36:59.719Z,101403.88
2023-01-07T03:42:05.497Z,101402.22
2023-01-07T03:46:56.652Z,101397.03
2023-01-07T03:51:50.744Z,101360.69
2023-01-07T03:56:48.475Z,101397.84
2023-01-07T04:01:41.578Z,101387.41
2023-01-07T04:06:34.838Z,101385.66
2023-01-07T04:11:46.530Z,101386.59
2023-01-07T04:16:43.470Z,101368.34
2023-01-07T04:21:33.552Z,101356.19
2023-01-07T04:26:27.062Z,101349.28
2023-01-07T04:31:19.725Z,101349.28
2023-01-07T04:36:16.809Z,101343.19
2023-01-07T04:41:09.645Z,101336.28
2023-01-07T04:46:05.117Z,101318.88
2023-01-07T04:50:59.538Z,101331.88
2023-01-07T04:55:55.031Z,101332.75
2023-01-07T05:00:46.683Z,101327.59
2023-01-07T05:05:48.261Z,101334.50
2023-01-07T05:10:52.073Z,101317.09
2023-01-07T05:15:48.387Z,101293.75
2023-01-07T05:20:50.069Z,101279.00
2023-01-07T05:25:46.553Z,101282.28
2023-01-07T05:30:40.208Z,101283.25
2023-01-07T05:35:37.222Z,101278.00
2023-01-07T05:40:27.530Z,101273.66
2023-01-07T05:45:21.935Z,101266.69
2023-01-07T05:50:20.209Z,101258.13
2023-01-07T05:55:26.880Z,101265.00
2023-01-07T06:00:21.751Z,101257.19
2023-01-07T06:05:21.914Z,101247.66
2023-01-07T06:10:18.193Z,101240.72
2023-01-07T06:15:10.148Z,101239.91
2023-01-07T06:19:59.914Z,101214.81
2023-01-07T06:24:54.950Z,101219.94
2023-01-07T06:29:49.577Z,101230.19
2023-01-07T06:34:44.971Z,101212.91
2023-01-07T06:39:38.570Z,101209.38
2023-01-07T06:44:35.963Z,101195.50
2023-01-07T06:49:29.952Z,101199.75
2023-01-07T06:54:21.773Z,101176.34
2023-01-07T06:59:16.032Z,101206.66
2023-01-07T07:04:07.851Z,101208.34
2023-01-07T07:09:12.652Z,101195.34
2023-01-07T07:14:08.419Z,101159.06
2023-01-07T07:19:01.037Z,101199.69
2023-01-07T07:23:52.586Z,101197.97
2023-01-07T07:28:50.700Z,101178.13
2023-01-07T07:33:43.837Z,101190.13
2023-01-07T07:38:39.808Z,101177.09
2023-01-07T07:43:36.087Z,101171.97
2023-01-07T07:48:30.819Z,101163.28
2023-01-07T07:53:23.185Z,101164.25
2023-01-07T07:58:14.636Z,101148.63
2023-01-07T08:03:05.801Z,101152.13
2023-01-07T08:08:04.409Z,101149.50
2023-01-07T08:12:55.893Z,101144.34
2023-01-07T08:17:48.134Z,101131.28
2023-01-07T08:22:39.494Z,101147.78
2023-01-07T08:27:33.632Z,101141.72
2023-01-07T08:32:28.420Z,101136.50
2023-01-07T08:37:19.887Z,101140.06
2023-01-07T08:42:13.813Z,101129.66
2023-01-07T08:47:06.575Z,101132.19
2023-01-07T08:51:58.301Z,101122.66
2023-01-07T08:56:48.292Z,101113.03
2023-01-07T09:01:40.307Z,101118.22
2023-01-07T09:06:35.959Z,101080.13
2023-01-07T09:11:28.410Z,101103.34
2023-01-07T09:16:19.873Z,101090.41
2023-01-07T09:21:13.743Z,101087.59
2023-01-07T09:26:07.838Z,101070.16
2023-01-07T09:31:00.751Z,101066.63
2023-01-07T09:35:53.036Z,101053.53
2023-01-07T09:40:48.554Z,101043.91
2023-01-07T09:45:45.628Z,101034.47
2023-01-07T09:50:47.138Z,101024.91
2023-01-07T09:56:11.733Z,101027.31
2023-01-07T10:01:15.778Z,101017.59
2023-01-07T10:06:14.373Z,101009.41
2023-01-07T10:11:18.906Z,101006.97
2023-01-07T10:16:21.838Z,101003.31
2023-01-07T10:21:23.514Z,100991.69
2023-01-07T10:26:23.954Z,100968.16
2023-01-07T10:31:21.081Z,100970.50
2023-01-07T10:36:24.007Z,100962.66
2023-01-07T10:41:23.395Z,100957.34
2023-01-07T10:46:43.400Z,100931.44
2023-01-07T10:51:59.128Z,100909.66
2023-01-07T10:56:54.979Z,100904.41
2023-01-07T11:01:55.802Z,100895.06
2023-01-07T11:06:56.406Z,100873.31
2023-01-07T11:11:54.410Z,100851.22
2023-01-07T11:16:51.532Z,100844.91
2023-01-07T11:21:52.833Z,100832.81
2023-01-07T11:26:50.697Z,100828.34
2023-01-07T11:31:54.034Z,100797.28
2023-01-07T11:36:58.733Z,100808.50
2023-01-07T11:42:00.797Z,100801.16
2023-01-07T11:47:00.648Z,100812.47
2023-01-07T11:51:53.897Z,100802.91
2023-01-07T11:56:48.924Z,100795.28
2023-01-07T12:01:51.478Z,100791.91
2023-01-07T12:06:48.355Z,100777.09
2023-01-07T12:11:42.447Z,100770.91
2023-01-07T12:16:33.362Z,100750.03
2023-01-07T12:21:46.629Z,100741.22
2023-01-07T12:26:47.553Z,100740.22
2023-01-07T12:31:53.511Z,100710.91
2023-01-07T12:36:55.413Z,100705.66
2023-01-07T12:41:53.618Z,100692.56
2023-01-07T12:46:53.610Z,100681.94
2023-01-07T12:52:16.961Z,100675.75
2023-01-07T12:57:15.274Z,100661.88
2023-01-07T13:02:22.085Z,100650.50
2023-01-07T13:07:20.758Z,100636.44
2023-01-07T13:12:40.762Z,100620.78
2023-01-07T13:17:37.679Z,100610.34
2023-01-07T13:22:37.380Z,100607.72
2023-01-07T13:27:40.496Z,100604.38
2023-01-07T13:33:01.692Z,100599.78
2023-01-07T13:38:10.583Z,100595.38
2023-01-07T13:43:13.504Z,100588.47
2023-01-07T13:48:10.339Z,100574.75
2023-01-07T13:53:09.795Z,100556.41
2023-01-07T13:58:03.066Z,100557.47
2023-01-07T14:02:59.381Z,100562.13
2023-01-07T14:07:56.823Z,100544.91
2023-01-07T14:13:14.420Z,100527.75
2023-01-07T14:18:36.123Z,100526.22
2023-01-07T14:23:38.779Z,100554.44
2023-01-07T14:29:07.053Z,100544.00
2023-01-07T14:34:09.364Z,100546.63
2023-01-07T14:39:05.200Z,100536.00
2023-01-07T14:44:34.636Z,100524.88
2023-01-07T14:49:59.558Z,100529.88
2023-01-07T14:55:21.718Z,100522.22
2023-01-07T15:00:38.989Z,100507.63
2023-01-07T15:06:13.761Z,100496.91
2023-01-07T15:11:19.449Z,100494.69
2023-01-07T15:16:16.639Z,100497.50
2023-01-07T15:21:19.841Z,100504.38
2023-01-07T15:26:20.829Z,100495.81
2023-01-07T15:31:26.568Z,100479.53
2023-01-07T15:36:22.195Z,100468.78
2023-01-07T15:41:28.391Z,100433.75
2023-01-07T15:46:28.127Z,100472.19
2023-01-07T15:51:20.982Z,100468.88
2023-01-07T15:56:34.165Z,100456.13
2023-01-07T16:01:30.426Z,100450.94
2023-01-07T16:06:34.975Z,100445.81
2023-01-07T16:11:31.121Z,100451.16
2023-01-07T16:16:22.400Z,100442.63
2023-01-07T16:21:18.339Z,100453.09
2023-01-07T16:26:12.640Z,100461.06
2023-01-07T16:31:12.243Z,100473.34
2023-01-07T16:36:05.988Z,100473.41
2023-01-07T16:41:09.087Z,100471.97
2023-01-07T16:46:28.751Z,100455.88
2023-01-07T16:51:38.511Z,100464.06
2023-01-07T16:56:32.642Z,100457.53
2023-01-07T17:01:38.236Z,100461.00
2023-01-07T17:06:34.612Z,100451.50
2023-01-07T17:11:33.984Z,100431.44
2023-01-07T17:16:34.775Z,100434.00
2023-01-07T17:21:46.019Z,100433.06
2023-01-07T17:26:40.438Z,100411.47
2023-01-07T17:31:35.513Z,100417.53
2023-01-07T17:36:29.607Z,100406.34
2023-01-07T17:41:36.964Z,100387.28
2023-01-07T17:46:27.705Z,100374.41
2023-01-07T17:51:20.703Z,100373.41
2023-01-07T17:56:11.177Z,100363.13
2023-01-07T18:01:03.898Z,100355.22
2023-01-07T18:05:57.470Z,100343.94
2023-01-07T18:11:12.632Z,100344.28
2023-01-07T18:16:04.736Z,100358.78
2023-01-07T18:20:57.007Z,100332.09
2023-01-07T18:25:51.658Z,100338.53
2023-01-07T18:30:42.900Z,100357.31
2023-01-07T18:35:35.571Z,100339.97
2023-01-07T18:40:26.100Z,100298.88
2023-01-07T18:45:21.680Z,100359.09
2023-01-07T18:50:14.384Z,100358.25
2023-01-07T18:55:05.562Z,100351.47
2023-01-07T18:59:59.717Z,100353.28
2023-01-07T19:04:55.383Z,100355.28
2023-01-07T19:09:47.175Z,100356.06
2023-01-07T19:14:39.980Z,100349.88
2023-01-07T19:19:47.533Z,100355.94
2023-01-07T19:24:41.355Z,100346.19
2023-01-07T19:29:31.681Z,100352.34
2023-01-07T19:34:21.998Z,100341.72
2023-01-07T19:39:18.877Z,100338.22
2023-01-07T19:44:13.827Z,100323.28
2023-01-07T19:49:08.117Z,100324.91
2023-01-07T19:54:02.498Z,100316.09
2023-01-07T19:58:56.908Z,100327.13
2023-01-07T20:03:50.933Z,100315.75
2023-01-07T20:08:42.743Z,100307.47
2023-01-07T20:13:36.898Z,100331.63
2023-01-07T20:18:31.641Z,100303.31
2023-01-07T20:23:25.245Z,100318.63
2023-01-07T20:28:15.806Z,100298.81
2023-01-07T20:33:11.612Z,100302.94
2023-01-07T20:38:07.470Z,100312.34
2023-01-07T20:43:02.704Z,100315.25
2023-01-07T20:47:56.218Z,100295.41
2023-01-07T20:52:49.312Z,100294.66
2023-01-07T20:57:41.692Z,100284.84
2023-01-07T21:02:37.372Z,100294.50
2023-01-07T21:07:29.155Z,100290.25
2023-01-07T21:12:19.757Z,100295.16
2023-01-07T21:17:17.034Z,100295.25
2023-01-07T21:22:10.951Z,100288.06
2023-01-07T21:27:06.960Z,100282.56
2023-01-07T21:32:01.236Z,100268.34
2023-01-07T21:36:56.453Z,100265.72
2023-01-07T21:41:50.457Z,100272.41
2023-01-07T21:46:43.014Z,100287.09
2023-01-07T21:51:35.356Z,100276.91
2023-01-07T21:56:29.348Z,100287.25
2023-01-07T22:01:28.314Z,100279.19
2023-01-07T22:06:25.599Z,100272.34
2023-01-07T22:11:17.670Z,100270.47
2023-01-07T22:16:09.524Z,100262.81
2023-01-07T22:21:08.147Z,100274.19
2023-01-07T22:26:07.141Z,100276.00
2023-01-07T22:30:59.421Z,100258.66
2023-01-07T22:35:51.556Z,100271.44
2023-01-07T22:40:45.318Z,100268.84
2023-01-07T22:45:42.789Z,100273.13
2023-01-07T22:50:34.765Z,100270.50
2023-01-07T22:55:26.079Z,100277.44
2023-01-07T23:00:45.348Z,100319.69
2023-01-07T23:05:38.525Z,100351.44
2023-01-07T23:10:39.872Z,100335.53
2023-01-07T23:15:34.273Z,100318.31
2023-01-07T23:20:26.931Z,100309.28
2023-01-07T23:25:18.643Z,100327.63
2023-01-07T23:30:14.976Z,100298.91
2023-01-07T23:35:12.807Z,100305.19
2023-01-07T23:40:04.384Z,100283.50
2023-01-07T23:44:58.072Z,100290.25
2023-01-07T23:49:49.905Z,100282.75
2023-01-07T23:54:44.610Z,100295.66
2023-01-07T23:59:38.297Z,100300.69
